Artem Skavysh

Scout - Dinamo Minsk
8 Jan 2028
Samstag
Verarbeitung

Persönlichkeit

Anpassungsfähigkeit (15) Ehrgeiz (13) Kontroverse (1) Loyalität (18) Druck (17) Professionalität (13) Fairness (7) Temperament (12)

Profil

Trainerstil Demokratisch
Lizenz Kontinentale C
Entschlossenheit 11
Menschenführung 5
Motivation 5
Disziplin 4
Arbeitszufriedenheit
100%
Ermüdung
0%
Rolle Scout
Gehalt 50.1K p/W
Vertrag 14.03.2028

Leistung

Verhalten Gut
Trainingseffektivität
38%
Spielerentwicklung
45%
Verletzungsprävention
20%
Taktische Umsetzung
30%

Letzte Ereignisse

Nahm an einer Scouting-Besprechung teil jetzt
Empfahl ein Transferziel jetzt
Empfahl ein Transferziel jetzt
Vertragsverhandlung begonnen jetzt
Vertragsverhandlung begonnen jetzt
Spieler begutachtet jetzt
Vertragsverhandlung begonnen jetzt
Spieler begutachtet jetzt

Aktuell beobachtet

167
Spieler Verein Status Fähigkeit Vertrauen Beobachtet Zuletzt beobachtet Letzte Stimme
Nicolás Sosa Racing Aktiv 104 / 108 40% 5 07.01.2028 -
Edarlyn Reyes Arsenal Tula Aktiv 115 / 111 40% 4 07.01.2028 -
Jacques Siwe Rubin Aktiv 119 / 118 40% 1 07.01.2028 -
Vladislav Sarveli Nizhniy Novgorod Aktiv 107 / 110 40% 5 06.01.2028 -
Vladimir Nikolov Slavia Sofia Aktiv 110 / 111 40% 2 06.01.2028 -
Mihael Mlinarić Zaglebie Aktiv 125 / 113 40% 2 06.01.2028 -
Yegor Kortsov Dinamo Brest Aktiv 122 / 115 40% 4 05.01.2028 Beobachten
Chinedu Geoffrey Krylya Sovetov Aktiv 112 / 116 40% 8 05.01.2028 -
Tomás Chancalay Minnesota United FC Aktiv 142 / 130 40% 1 05.01.2028 -
Dilan Ortíz Ufa Aktiv 111 / 107 40% 1 03.01.2028 -
Julian Cuadrado Cortulua Aktiv 110 / 119 40% 1 03.01.2028 -
François Kamano Sochi Aktiv 119 / 118 40% 4 02.01.2028 -
Brayan Gil Baltika Aktiv 127 / 128 40% 3 02.01.2028 -
Franco Ayunta Temperley Aktiv 120 / 116 40% 1 02.01.2028 -
Maksim Samorodov Akhmat Grozny Aktiv 119 / 129 40% 3 30.12.2027 -
Brian Mansilla Akhmat Grozny Aktiv 123 / 120 40% 9 29.12.2027 -
Elías Ayala Madryn Aktiv 102 / 105 40% 1 29.12.2027 -
German Onugkha Rodina Aktiv 116 / 118 40% 4 26.12.2027 -
Vladislav Shitov Krylya Sovetov Aktiv 116 / 117 40% 5 26.12.2027 -
Jonathan Okoronkwo Torpedo Moscow Aktiv 104 / 107 40% 4 26.12.2027 -
Georgy Melkadze Akhmat Grozny Aktiv 118 / 113 40% 2 22.12.2027 -
Alejandro Cantero Huesca Aktiv 113 / 113 40% 4 22.12.2027 -
Thiago Calone All Boys Aktiv 114 / 115 40% 3 22.12.2027 -
Tenton Yenne Baltika Aktiv 113 / 109 40% 4 20.12.2027 -
Gamid Agalarov Dinamo Makhachkala Aktiv 109 / 110 40% 4 19.12.2027 -
Kamran Aliev SKA Khabarovsk Aktiv 103 / 106 40% 5 19.12.2027 -
Charles Courtois Mouscron Aktiv 143 / 141 40% 1 19.12.2027 -
Franco Fagúndez Estudiantes Aktiv 120 / 108 40% 1 17.12.2027 -
Razhab Magomedov Dinamo Makhachkala Aktiv 111 / 110 40% 1 17.12.2027 -
Clemente Montes Universidad Catolica Aktiv 124 / 125 40% 4 15.12.2027 -
Samson Tovide Colchester United Aktiv 94 / 103 40% 1 13.12.2027 -
Marcos Camarda Santiago Wanderers Aktiv 99 / 107 40% 3 10.12.2027 -
Mohamed Konaté Akhmat Grozny Aktiv 114 / 114 40% 2 07.12.2027 -
Vyacheslav Grulev Nizhniy Novgorod Aktiv 119 / 112 40% 3 06.12.2027 -
Mohammed Sofo San Jose Earthquakes Aktiv 96 / 110 40% 2 03.12.2027 -
Mathias Grundetjern Stabaek Aktiv 109 / 107 40% 5 02.12.2027 -
Artem Maximenko Rodina Aktiv 115 / 111 40% 1 01.12.2027 -
Erik Flataker AIK Aktiv 122 / 114 40% 3 30.11.2027 -
Nathan Fogaça Fortaleza Aktiv 141 / 129 40% 1 29.11.2027 -
Vladimir Khubulov Dinamo Makhachkala Aktiv 119 / 108 40% 3 28.11.2027 -
Mirlind Daku Spartak Moscow Aktiv 136 / 132 40% 1 28.11.2027 -
Dennis Gjengaar Valerenga Aktiv 104 / 116 40% 4 22.11.2027 -
Slobodan Tedić Akron Aktiv 103 / 110 40% 2 21.11.2027 -
Kelvin Flórez Junior Aktiv 128 / 115 40% 1 18.11.2027 -
Hazem Mastouri Nizhniy Novgorod Aktiv 108 / 108 40% 2 17.11.2027 -
Carlos Gugenheim Almirante Brown Aktiv 101 / 113 40% 4 15.11.2027 -
Armindo Sieb OB Aktiv 131 / 120 40% 1 15.11.2027 -
Chinonso Offor Baltika Aktiv 113 / 111 40% 1 12.11.2027 -
Luighi Palmeiras Aktiv 100 / 120 40% 1 12.11.2027 -
Fabricio Rojas Gimnasia y Tiro Aktiv 112 / 105 40% 1 10.11.2027 -
Camilo Machado Madryn Aktiv 95 / 105 40% 3 08.11.2027 -
Jonatan Torres Cerro Porteno Aktiv 118 / 114 40% 1 08.11.2027 -
Lucas Carrizo Lanús Aktiv 100 / 109 40% 3 05.11.2027 -
Timur Suleimanov Rostov Aktiv 111 / 121 40% 1 31.10.2027 -
Yegor Golenkov Rostov Aktiv 114 / 118 40% 2 27.10.2027 -
Cristian Olivera Grêmio Aktiv 142 / 135 40% 1 27.10.2027 -
Mikhail Ignatov Sochi Aktiv 117 / 115 40% 2 17.10.2027 -
Alexandr Rudenko Lokomotiv Moscow Aktiv 121 / 120 40% 1 15.10.2027 -
Blas Armoa Gimnasia y Esgrima Aktiv 107 / 116 40% 2 30.09.2027 -
Javier Martínez Almirante Brown Aktiv 98 / 104 40% 2 28.09.2027 -
Matija Popović Chaika Aktiv 109 / 112 40% 1 26.09.2027 -
Federico Álvarez Atlanta Aktiv 98 / 100 40% 1 25.09.2027 -
Juan David Rueda Alianza Petrolera Aktiv 95 / 109 40% 1 23.09.2027 -
Douglas Augusto Baltika Aktiv 141 / 134 40% 1 16.08.2027 -
Maximiliano Ribero Central Norte Verhandlung 116 / 119 40% 1 16.08.2027 -
Eldar Ćivić Baltika Aktiv 115 / 122 40% 2 05.07.2027 -
Temirkan Sundukov Dinamo Makhachkala Aktiv 112 / 115 40% 2 05.07.2027 -
Evgeniy Shevchenko Slavia Mozyr Bericht bereit 97 / 99 62% 1 05.07.2027 -
Josh Neufville Bradford City Aktiv 121 / 111 40% 2 04.07.2027 -
Júlio Romão Akhmat Grozny Aktiv 116 / 115 40% 1 04.07.2027 -
Nikolay Giorgobiani Fakel Aktiv 107 / 108 40% 2 02.07.2027 -
Alexey Mironov Rostov Aktiv 119 / 121 40% 2 01.07.2027 -
Stefan Lončar Akron Aktiv 110 / 117 40% 1 30.06.2027 -
Kirill Pechenin Krylya Sovetov Aktiv 120 / 119 40% 1 29.06.2027 -
Mario Ćurić Torpedo Moscow Aktiv 111 / 112 40% 2 28.06.2027 -
Temur Odilov Avangard Aktiv 68 / 77 40% 1 15.06.2027 -
Mikhail Gordeychuk Niva Aktiv 91 / 96 62% 1 14.06.2027 Befürworten
Andrea Chukanov Yenisey Verhandlung 105 / 102 40% 1 12.06.2027 -
Miroslav Bogosavac Akhmat Grozny Aktiv 113 / 118 40% 1 12.06.2027 -
Brendan Wiredu Plymouth Argyle Aktiv 123 / 118 40% 4 10.06.2027 -
Daniil Penchikov Arsenal Tula Aktiv 110 / 104 40% 2 08.06.2027 -
Khetag Khosonov Akron Aktiv 117 / 110 40% 1 08.06.2027 -
Cristian Peñate Barranquilla Verloren 98 / 93 40% 1 08.06.2027 -
Yegor Kuznetsov Rubin Aktiv 56 / 63 40% 1 08.06.2027 -
Léo Cordeiro Ural Aktiv 107 / 108 40% 6 06.06.2027 -
Alexandr Goryachkin Kolomna Aktiv 72 / 73 40% 2 06.06.2027 -
Alexey Berdnikov Chelyabinsk Aktiv 90 / 97 40% 2 04.06.2027 -
Andrey Langovich Rostov Aktiv 124 / 122 40% 2 04.06.2027 -
Vladislav Kamilov Ufa Aktiv 110 / 100 40% 3 03.06.2027 -
Vladislav Masternoy SKA Khabarovsk Aktiv 93 / 100 40% 1 03.06.2027 -
Jhon Aponza Boca Juniors Aktiv 120 / 117 40% 1 03.06.2027 -
Dmitry Prokhorov Rubin Aktiv 72 / 73 40% 2 02.06.2027 -
Edison Gruezo Guadalajara Aktiv 115 / 103 40% 1 02.06.2027 -
Alexandr Troshechkin Rotor Aktiv 98 / 105 40% 1 01.06.2027 -
Andrey Ivlev Nizhniy Novgorod Aktiv 105 / 121 40% 2 31.05.2027 -
Mathis Jangeal Famalicao Aktiv 109 / 102 40% 3 30.05.2027 -
Lautaro Gutiérrez Girona Aktiv 89 / 106 40% 1 30.05.2027 -
Vyacheslav Yakimov Fakel Aktiv 102 / 107 40% 1 28.05.2027 -
Vadim Tsygankov Spartak Moscow Aktiv 67 / 67 40% 2 26.05.2027 -
Kamil Ibragimov Volga Aktiv 98 / 98 40% 2 25.05.2027 -
David Gagua Chaika Aktiv 74 / 80 40% 2 23.05.2027 -
Denis Chuprunov Nizhniy Novgorod Aktiv 70 / 70 40% 2 23.05.2027 -
Vladis Emmersón Yenisey Aktiv 99 / 103 40% 2 23.05.2027 -
Aslan Aushev Metallurg Aktiv 52 / 63 40% 1 21.05.2027 -
Nazar Makeev Akron Aktiv 68 / 67 40% 1 21.05.2027 -
Vladislav Malkevich Ural Aktiv 102 / 100 40% 3 19.05.2027 -
Maxime Sivis Orenburg Aktiv 109 / 115 40% 3 18.05.2027 -
Alexandr Ektov Nizhniy Novgorod Aktiv 106 / 113 40% 1 18.05.2027 -
Dominik Oroz Krylya Sovetov Aktiv 116 / 112 40% 2 16.05.2027 -
Victor Melekhin Rostov Aktiv 115 / 125 40% 1 15.05.2027 -
Andrey Domotsev Mashuk Aktiv 83 / 85 40% 1 15.05.2027 -
Ruslan Myalkovskiy Lokomotiv Moscow Aktiv 98 / 102 40% 1 13.05.2027 -
Naledi Hlongwane Heracles Aktiv 96 / 102 40% 1 13.05.2027 -
Gleb Shevchenko Torpedo Moscow Aktiv 111 / 106 40% 4 12.05.2027 -
Darko Todorović Fakel Aktiv 121 / 114 40% 1 09.05.2027 -
Nikolay Rasskazov Krylya Sovetov Aktiv 113 / 113 40% 1 09.05.2027 -
Edgardo Fariña Nizhniy Novgorod Aktiv 111 / 115 40% 1 08.05.2027 -
Fanil Sungatulin Ural Aktiv 117 / 110 40% 4 07.05.2027 -
Maxim Nenakhov Lokomotiv Moscow Aktiv 123 / 120 40% 1 07.05.2027 -
Sergey Guzyuk Strogino Aktiv 60 / 66 40% 1 07.05.2027 -
Maxim Mitskevich Textilschik Aktiv 70 / 71 40% 1 07.05.2027 -
Marat Bokoev Akron Aktiv 122 / 121 40% 1 04.05.2027 -
Denil Maldonado Rubin Aktiv 120 / 119 40% 1 03.05.2027 -
Ilja Zhigulev Chernomorets Aktiv 100 / 101 40% 3 02.05.2027 -
Konstantin Kovalev Volga Aktiv 97 / 96 40% 1 02.05.2027 -
Igor Vujačić Rubin Aktiv 118 / 120 40% 2 01.05.2027 -
Danila Boiko Nosta Aktiv 60 / 65 40% 2 30.04.2027 -
Egor Yuschenko Bumprom Gomel Aktiv 77 / 83 40% 1 26.04.2027 -
Kita Foullah Edifice Aktiv 72 / 80 40% 1 26.04.2027 -
José Mendes Sporting CP Aktiv 82 / 85 40% 1 24.04.2027 -
Jah-Mason Telusson Olympique de Marseille Aktiv 77 / 101 40% 1 24.04.2027 -
Dilan Neves Benfica Aktiv 84 / 80 40% 1 22.04.2027 -
Timur Kim Arsenal Tula Aktiv 55 / 59 40% 1 22.04.2027 -
Evgeny Kharin Ural Aktiv 105 / 102 40% 1 22.04.2027 -
Maxim Mukhin Rostov Aktiv 113 / 113 40% 1 19.04.2027 -
David Shavlokhov SKA Khabarovsk Aktiv 92 / 99 40% 2 17.04.2027 -
Houssem Mrezigue Dinamo Makhachkala Aktiv 118 / 121 40% 2 17.04.2027 -
Bojan Dimoski Akron Aktiv 99 / 104 40% 1 16.04.2027 -
Alexandr Soldatenkov Sochi Aktiv 113 / 117 40% 1 15.04.2027 -
Stanislav Magkeev Fakel Aktiv 113 / 107 40% 2 13.04.2027 -
Andrés Alarcón Dinamo Makhachkala Aktiv 119 / 114 40% 1 13.04.2027 -
Sven Karič Nizhniy Novgorod Aktiv 119 / 119 40% 1 12.04.2027 -
Nikita Pechenkin Sokol Aktiv 105 / 99 40% 1 09.04.2027 -
Mamadou Maïga Nizhniy Novgorod Aktiv 110 / 111 40% 1 09.04.2027 -
Kostiantyn Kvas Nyva Aktiv 87 / 83 40% 1 09.04.2027 -
Kirill Malyarov Shinnik Aktiv 102 / 100 40% 1 07.04.2027 -
Nikita Kakkoev Nizhniy Novgorod Aktiv 112 / 117 40% 1 04.04.2027 -
Nikita Kotin Shinnik Aktiv 89 / 92 40% 1 02.04.2027 -
Ítalo Ural Aktiv 113 / 107 40% 2 01.04.2027 -
Nemanja Stojić Sochi Aktiv 120 / 119 40% 1 31.03.2027 -
Andrey Solodukhin KAMAZ Aktiv 80 / 76 40% 2 30.03.2027 -
Justin Clarke Everton Aktiv 84 / 94 40% 1 30.03.2027 -
Jordan Gabriel Port Vale Aktiv 114 / 102 40% 1 29.03.2027 -
Miloš Brnović Arsenal Tula Aktiv 116 / 116 40% 1 29.03.2027 -
Artem Makarchuk Sochi Aktiv 118 / 109 40% 1 26.03.2027 -
Igor Konovalov Chernomorets Aktiv 105 / 98 40% 1 26.03.2027 -
Eduard Valiakhmetov Neftekhimik Aktiv 100 / 99 40% 1 24.03.2027 -
Ilja Vorontsov Kolomna Aktiv 58 / 64 40% 1 24.03.2027 -
Gustavo Ferreira Benfica Aktiv 80 / 80 40% 1 24.03.2027 -
Kirill Cheburakov Rostov Aktiv 72 / 82 40% 1 23.03.2027 -
Yannik Wagner Heidenheim Aktiv 99 / 113 40% 1 23.03.2027 -
Shunsuke Saito Westerlo Aktiv 102 / 105 40% 1 21.03.2027 -
Robert Mejía Orenburg Aktiv 116 / 113 40% 1 18.03.2027 -
Amur Balkizov Kaluga Aktiv 75 / 80 40% 1 18.03.2027 -
Rival Gumerov Rubin Aktiv 56 / 62 40% 1 17.03.2027 -
Nikita Bylinkin Slutsk Aktiv 75 / 88 62% 1 10.08.2026 Befürworten
Carlos Moreno Pachuca Aktiv 128 / 121 40% 1 01.08.2026 -